Santos Dumont Airport

SBRJ · Rio de Janeiro, Brazil

METAR history SBRJ · Santos Dumont Airport

Below you see METARs of the last few days. Select a year to browse through older METARs, from the year 2007 onwards.

November 26, 2022

Time Code Weather Temp. Visibility Ceiling Wind METAR/SPECI
22:00
M
23 °C 10 km+ 2,900 ft 140° 140° 4 kt METAR SBGL 270100Z 14004KT 9999 FEW025 BKN029 OVC035 23/20 Q1014
21:00
V
23 °C 10 km+ 4,000 ft 140° 140° 4 kt METAR SBGL 270000Z 14004KT 9999 FEW020 BKN040 OVC090 23/20 Q1013
20:00
V
23 °C 10 km+ 4,000 ft 120° 120° 7 kt METAR SBGL 262300Z 12007KT 9999 FEW020 BKN040 OVC090 23/20 Q1014
19:00
V
24 °C 10 km+ 4,000 ft 110° 110° 8 kt METAR SBGL 262200Z 11008KT 9999 FEW020 BKN040 24/20 Q1013
18:00
V
24 °C 10 km+ 4,000 ft 120° 120° 5 kt METAR SBGL 262100Z 12005KT 9999 FEW020 BKN040 24/20 Q1013
17:00
V
25 °C 10 km+ 3,000 ft 140° 140° 8 kt METAR SBGL 262000Z 14008KT 9999 FEW020 BKN030 BKN040 25/19 Q1012
16:00
V
25 °C 10 km+ 4,000 ft 120° 120° 9 kt METAR SBGL 261900Z 12009KT 9999 FEW020 BKN040 BKN050 25/20 Q1012
15:00
V
26 °C 10 km+ 3,000 ft 130° 130° 8 kt METAR SBGL 261800Z 13008KT 9999 FEW020 BKN030 BKN040 26/20 Q1012
14:00
V
26 °C 10 km+ 3,000 ft 120° 120° 8 kt METAR SBGL 261700Z 12008KT 9999 FEW020 BKN030 BKN040 26/19 Q1012
13:00
V
27 °C 10 km+ 6,000 ft 150° 150° 6 kt METAR SBGL 261600Z 15006KT 9999 SCT030 BKN060 27/19 Q1013
12:00
V
26 °C 10 km+ 6,000 ft 100° 100° 5 kt METAR SBGL 261500Z 10005KT 9999 SCT030 BKN060 26/19 Q1013
11:00
V
27 °C 10 km+ 7,000 ft 140° 140° 7 kt METAR SBGL 261400Z 14007KT 9999 SCT030 BKN070 27/19 Q1013
10:00
V
27 °C 10 km+ 8,000 ft 310° 310° 5 kt METAR SBGL 261300Z 31005KT 9999 SCT025 BKN080 27/20 Q1014
09:00
V
26 °C 10 km+ 9,000 ft Var Var 3 kt METAR SBGL 261200Z VRB03KT 9999 SCT025 BKN090 26/19 Q1013
08:00
V
24 °C 10 km+ 10,000 ft 320° 320° 3 kt METAR SBGL 261100Z 32003KT 210V020 9999 SCT020 BKN100 24/19 Q1013
07:00
V
24 °C 10 km+ - 250° 250° 5 kt METAR SBGL 261000Z 25005KT 9999 FEW023 SCT100 24/19 Q1012
06:00
V
22 °C 10 km+ - 310° 310° 5 kt METAR SBGL 260900Z 31005KT 9999 SCT023 SCT100 22/20 Q1012
05:00
V
21 °C 8 km - 350° 350° 4 kt METAR SBGL 260800Z 35004KT 8000 SCT023 SCT100 21/19 Q1012
04:00
V
21 °C 8 km - 320° 320° 4 kt METAR SBGL 260700Z 32004KT 8000 FEW019 SCT050 21/19 Q1012
03:00
V
21 °C 10 km+ - 300° 300° 4 kt METAR SBGL 260600Z 30004KT 9999 FEW019 SCT050 21/19 Q1012
02:00
V
22 °C 10 km+ - 280° 280° 5 kt METAR SBGL 260500Z 28005KT 9999 FEW019 SCT050 22/19 Q1012
01:00
V
22 °C 10 km+ - 330° 330° 5 kt METAR SBGL 260400Z 33005KT 9999 FEW019 SCT050 22/19 Q1012
00:00
V
21 °C 10 km+ - 280° 280° 5 kt METAR SBGL 260300Z 28005KT 9999 FEW019 SCT050 21/19 Q1013

November 25, 2022

Time Code Weather Temp. Visibility Ceiling Wind METAR/SPECI
23:00
V
23 °C 10 km+ 4,300 ft 290° 290° 8 kt METAR SBGL 260200Z 29008KT 9999 FEW019 SCT030 BKN043 23/20 Q1013
22:00
V
23 °C 10 km+ - 270° 270° 7 kt METAR SBGL 260100Z 27007KT 9999 SCT023 SCT033 23/19 Q1014
21:00
V
23 °C 10 km+ - 290° 290° 5 kt METAR SBGL 260000Z 29005KT 9999 SCT023 SCT033 23/19 Q1013
20:00
V
23 °C 10 km+ - 240° 240° 8 kt METAR SBGL 252300Z 24008KT 9999 FEW020 SCT035 23/19 Q1013
19:00
V
24 °C 10 km+ - 230° 230° 11 kt METAR SBGL 252200Z 23011KT 9999 FEW020 SCT060 24/18 Q1013
18:00
V
24 °C 10 km+ - 230° 230° 12 kt METAR SBGL 252100Z 23012KT 9999 FEW015 SCT023 24/19 Q1012
17:00
V
26 °C 10 km+ - 210° 210° 15 kt METAR SBGL 252000Z 21015KT 9999 FEW015 SCT025 26/19 Q1011
16:00
V
27 °C 10 km+ - 220° 220° 16 kt METAR SBGL 251900Z 22016KT 9999 SCT025 27/18 Q1011
15:00
V
28 °C 10 km+ - 220° 220° 18 kt METAR SBGL 251800Z 22018KT 9999 FEW020 SCT030 28/18 Q1011
14:00
V
28 °C 10 km+ - 220° 220° 17 kt METAR SBGL 251700Z 22017KT 9999 FEW020 SCT030 28/18 Q1011
13:00
V
28 °C 10 km+ 3,500 ft 200° 200° 15 kt METAR SBGL 251600Z 20015KT 9999 BKN035 SCT100 28/19 Q1012
12:00
V
27 °C 10 km+ 4,000 ft 210° 210° 15 kt METAR SBGL 251500Z 21015KT 9999 BKN040 SCT100 27/19 Q1012
11:00
V
27 °C 10 km+ 4,000 ft 190° 190° 11 kt METAR SBGL 251400Z 19011KT 9999 BKN040 SCT100 27/19 Q1012
10:00
V
28 °C 10 km+ - 210° 210° 9 kt METAR SBGL 251300Z 21009KT 9999 SCT030 SCT100 28/19 Q1012
09:00
M
26 °C 10 km+ 2,600 ft 230° 230° 6 kt METAR SBGL 251200Z 23006KT 9999 SCT021 BKN026 26/20 Q1012
08:00
V
24 °C 10 km+ 4,000 ft 320° 320° 4 kt METAR SBGL 251100Z 32004KT 9999 FEW018 SCT021 BKN040 24/20 Q1012
07:00
V
23 °C 10 km+ 4,000 ft 320° 320° 5 kt METAR SBGL 251000Z 32005KT 9999 SCT020 BKN040 23/20 Q1012
06:00
V
22 °C 10 km+ - 250° 250° 3 kt METAR SBGL 250900Z 25003KT 9999 SCT030 22/20 Q1011
05:00
V
22 °C 10 km+ - 310° 310° 5 kt METAR SBGL 250800Z 31005KT 9999 FEW011 SCT020 22/20 Q1010
04:00
V
22 °C 10 km+ - 290° 290° 6 kt METAR SBGL 250700Z 29006KT 9999 FEW030 22/20 Q1010
03:00
V
22 °C 10 km+ - 290° 290° 6 kt METAR SBGL 250600Z 29006KT 9999 FEW006 SCT020 22/20 Q1011
02:00
V
22 °C 10 km+ - 280° 280° 5 kt METAR SBGL 250500Z 28005KT 9999 FEW014 SCT060 22/20 Q1010
01:00
V
23 °C 10 km+ 6,000 ft 270° 270° 5 kt METAR SBGL 250400Z 27005KT 9999 FEW020 BKN060 23/20 Q1011
00:00
V
23 °C 10 km+ 6,000 ft 280° 280° 6 kt METAR SBGL 250300Z 28006KT 9999 FEW020 BKN060 23/20 Q1012

November 24, 2022

Time Code Weather Temp. Visibility Ceiling Wind METAR/SPECI
23:00
V
23 °C 10 km+ 7,000 ft 240° 240° 4 kt METAR SBGL 250200Z 24004KT 9999 SCT020 BKN070 23/20 Q1012
22:00
V
23 °C 10 km+ - 290° 290° 4 kt METAR SBGL 250100Z 29004KT 9999 FEW017 SCT070 23/20 Q1013
21:00
V
23 °C 10 km+ 7,000 ft 340° 340° 5 kt METAR SBGL 250000Z 34005KT 9999 FEW015 BKN070 23/20 Q1013
20:00
V
22 °C 10 km+ - Var Var 2 kt METAR SBGL 242300Z VRB02KT 9999 FEW020 SCT065 22/20 Q1012
19:00
V
23 °C 10 km+ - 060° 060° 4 kt METAR SBGL 242200Z 06004KT 9999 SCT026 SCT030 23/20 Q1011
18:00
V
24 °C 10 km+ - 080° 080° 4 kt METAR SBGL 242100Z 08004KT 9999 FEW008 SCT026 24/19 Q1010
17:00
V
24 °C 10 km+ - 100° 100° 6 kt METAR SBGL 242000Z 10006KT 9999 FEW020 SCT070 24/19 Q1010
16:00
M
25 °C 10 km+ 2,300 ft 060° 060° 4 kt METAR SBGL 241900Z 06004KT 020V130 9999 FEW012 BKN023 25/21 Q1009
15:00
V
25 °C 10 km+ - 350° 350° 3 kt METAR SBGL 241800Z 35003KT 320V020 9999 FEW012 25/20 Q1010
14:00
V
24 °C 10 km+ - Var Var 2 kt METAR SBGL 241700Z VRB02KT 9999 FEW012 24/20 Q1010
13:00
M
24 °C 10 km+ 1,700 ft Var Var 2 kt METAR SBGL 241600Z VRB02KT 9999 SCT011 BKN017 OVC100 24/21 Q1011
12:00
M
23 °C 10 km+ 1,200 ft 070° 070° 9 kt METAR SBGL 241500Z 07009KT 9999 BKN012 BKN017 OVC100 23/20 Q1011
11:00
M
23 °C 10 km+ 1,100 ft 140° 140° 5 kt METAR SBGL 241400Z 14005KT 9999 BKN011 BKN017 OVC100 23/21 Q1011
10:00
V
22 °C 10 km+ 10,000 ft 160° 160° 3 kt METAR SBGL 241300Z 16003KT 9999 FEW013 SCT026 OVC100 22/20 Q1011
09:00
M
22 °C 9 km 1,500 ft 260° 260° 4 kt METAR SBGL 241200Z 26004KT 9000 FEW006 BKN015 OVC100 22/20 Q1011
08:00
I
21 °C 6 km 700 ft 300° 300° 17 kt METAR SBGL 241100Z 30017KT 6000 -RA SCT006 BKN007 OVC030 21/20 Q1011
07:00
I
21 °C 6 km 800 ft 320° 320° 10 kt METAR SBGL 241000Z 32010KT 6000 -RA FEW005 BKN008 OVC030 21/20 Q1011 RERA

We and third parties follow your internet behavior on our website with cookies. If you continue, we assume you agree with our cookie policy.